ADDS METAR Data INFO
IDs: Format: Raw Decoded Include TAF

Data at: 1753 UTC 18 Nov 2017

METAR for:KFFT (Frankfort/Capital Ci, KY, US)
Text:KFFT 181653Z AUTO 21020G34KT 10SM OVC022 18/12 A2953 RMK AO2 PK WND 20035/1628 SLP994 T01780122
Temperature: 17.8°C ( 64°F)
Dewpoint: 12.2°C ( 54°F) [RH = 70%]
Pressure (altimeter):29.53 inches Hg (1000.1 mb) [Sea level pressure: 999.4 mb]
Winds:from the SSW (210 degrees) at 23 MPH (20 knots; 10.3 m/s) gusting to 39 MPH (34 knots; 17.5 m/s)
Visibility:10 or more sm (16+ km)
Ceiling:2200 feet AGL
Clouds: overcast cloud deck at 2200 feet AGL
QC Flag:automated observation with no human augmentation